sensor_id;sensor_type;location;lat;lon;timestamp;pressure;altitude;pressure_sealevel;temperature;humidity
8140;BME280;4111;50.972;7.072;2023-02-12T00:01:09;103318.31;;;8.24;100.00
8140;BME280;4111;50.972;7.072;2023-02-12T00:03:37;103317.97;;;8.19;100.00
8140;BME280;4111;50.972;7.072;2023-02-12T00:06:05;103313.56;;;8.18;100.00
8140;BME280;4111;50.972;7.072;2023-02-12T00:08:32;103318.47;;;8.14;100.00
8140;BME280;4111;50.972;7.072;2023-02-12T00:10:59;103325.41;;;8.08;100.00
8140;BME280;4111;50.972;7.072;2023-02-12T00:13:25;103319.16;;;8.08;100.00
8140;BME280;4111;50.972;7.072;2023-02-12T00:15:51;103321.34;;;8.12;100.00
8140;BME280;4111;50.972;7.072;2023-02-12T00:18:18;103318.28;;;8.07;100.00
8140;BME280;4111;50.972;7.072;2023-02-12T00:20:45;103322.19;;;8.13;100.00
8140;BME280;4111;50.972;7.072;2023-02-12T00:23:11;103314.72;;;8.15;100.00
8140;BME280;4111;50.972;7.072;2023-02-12T00:25:40;103321.84;;;8.16;100.00
8140;BME280;4111;50.972;7.072;2023-02-12T00:28:06;103312.03;;;8.07;100.00
8140;BME280;4111;50.972;7.072;2023-02-12T00:30:34;103314.56;;;8.08;100.00
8140;BME280;4111;50.972;7.072;2023-02-12T00:33:00;103321.34;;;8.04;100.00
8140;BME280;4111;50.972;7.072;2023-02-12T00:35:27;103322.34;;;8.11;100.00
8140;BME280;4111;50.972;7.072;2023-02-12T00:37:53;103312.19;;;8.13;100.00
8140;BME280;4111;50.972;7.072;2023-02-12T00:40:19;103311.69;;;8.10;100.00
8140;BME280;4111;50.972;7.072;2023-02-12T00:42:46;103313.22;;;8.12;100.00
8140;BME280;4111;50.972;7.072;2023-02-12T00:45:12;103310.84;;;8.09;100.00
8140;BME280;4111;50.972;7.072;2023-02-12T00:47:39;103309.16;;;8.08;100.00
8140;BME280;4111;50.972;7.072;2023-02-12T00:50:06;103305.78;;;8.06;100.00
8140;BME280;4111;50.972;7.072;2023-02-12T00:52:32;103312.19;;;8.05;100.00
8140;BME280;4111;50.972;7.072;2023-02-12T00:54:59;103314.41;;;8.02;100.00
8140;BME280;4111;50.972;7.072;2023-02-12T00:57:25;103313.22;;;8.04;100.00
8140;BME280;4111;50.972;7.072;2023-02-12T00:59:52;103304.56;;;8.01;100.00
8140;BME280;4111;50.972;7.072;2023-02-12T01:02:18;103312.00;;;7.99;100.00
8140;BME280;4111;50.972;7.072;2023-02-12T01:04:44;103312.16;;;7.97;100.00
8140;BME280;4111;50.972;7.072;2023-02-12T01:07:11;103304.41;;;7.94;100.00
8140;BME280;4111;50.972;7.072;2023-02-12T01:09:37;103309.13;;;7.92;100.00
8140;BME280;4111;50.972;7.072;2023-02-12T01:12:04;103312.84;;;7.91;100.00
8140;BME280;4111;50.972;7.072;2023-02-12T01:14:31;103324.72;;;7.98;100.00
8140;BME280;4111;50.972;7.072;2023-02-12T01:16:57;103315.91;;;8.04;100.00
8140;BME280;4111;50.972;7.072;2023-02-12T01:19:24;103315.91;;;7.96;100.00
8140;BME280;4111;50.972;7.072;2023-02-12T01:21:50;103320.28;;;7.97;100.00
8140;BME280;4111;50.972;7.072;2023-02-12T01:24:17;103314.56;;;8.00;100.00
8140;BME280;4111;50.972;7.072;2023-02-12T01:26:43;103314.56;;;8.08;100.00
8140;BME280;4111;50.972;7.072;2023-02-12T01:29:09;103316.25;;;8.09;100.00
8140;BME280;4111;50.972;7.072;2023-02-12T01:31:37;103310.66;;;8.03;100.00
8140;BME280;4111;50.972;7.072;2023-02-12T01:34:05;103316.22;;;8.01;100.00
8140;BME280;4111;50.972;7.072;2023-02-12T01:36:32;103307.28;;;8.01;100.00
8140;BME280;4111;50.972;7.072;2023-02-12T01:38:59;103313.22;;;8.04;100.00
8140;BME280;4111;50.972;7.072;2023-02-12T01:41:34;103306.09;;;7.95;100.00
8140;BME280;4111;50.972;7.072;2023-02-12T01:44:16;103309.97;;;7.92;100.00
8140;BME280;4111;50.972;7.072;2023-02-12T01:46:44;103309.81;;;7.94;100.00
8140;BME280;4111;50.972;7.072;2023-02-12T01:49:14;103312.53;;;7.94;100.00
8140;BME280;4111;50.972;7.072;2023-02-12T01:51:43;103315.25;;;8.02;100.00
8140;BME280;4111;50.972;7.072;2023-02-12T01:54:12;103305.75;;;7.98;100.00
8140;BME280;4111;50.972;7.072;2023-02-12T01:56:40;103305.91;;;7.97;100.00
8140;BME280;4111;50.972;7.072;2023-02-12T01:59:07;103302.53;;;7.94;100.00
8140;BME280;4111;50.972;7.072;2023-02-12T02:01:34;103307.09;;;7.94;100.00
8140;BME280;4111;50.972;7.072;2023-02-12T02:04:04;103304.19;;;7.87;100.00
8140;BME280;4111;50.972;7.072;2023-02-12T02:06:35;103310.81;;;7.93;100.00
8140;BME280;4111;50.972;7.072;2023-02-12T02:09:05;103303.03;;;7.90;100.00
8140;BME280;4111;50.972;7.072;2023-02-12T02:11:31;103293.75;;;7.92;100.00
8140;BME280;4111;50.972;7.072;2023-02-12T02:14:16;103307.44;;;7.91;100.00
8140;BME280;4111;50.972;7.072;2023-02-12T02:22:24;103298.66;;;7.97;100.00
8140;BME280;4111;50.972;7.072;2023-02-12T02:36:30;103302.38;;;7.88;100.00
8140;BME280;4111;50.972;7.072;2023-02-12T02:39:08;103292.53;;;7.87;100.00
8140;BME280;4111;50.972;7.072;2023-02-12T02:44:25;103289.53;;;7.90;100.00
8140;BME280;4111;50.972;7.072;2023-02-12T02:46:54;103291.53;;;7.88;100.00
8140;BME280;4111;50.972;7.072;2023-02-12T02:49:30;103286.81;;;7.90;100.00
8140;BME280;4111;50.972;7.072;2023-02-12T02:52:02;103288.66;;;7.89;100.00
8140;BME280;4111;50.972;7.072;2023-02-12T02:54:35;103293.88;;;7.83;100.00
8140;BME280;4111;50.972;7.072;2023-02-12T02:57:16;103288.13;;;7.86;100.00
8140;BME280;4111;50.972;7.072;2023-02-12T02:59:49;103287.97;;;7.87;100.00
8140;BME280;4111;50.972;7.072;2023-02-12T03:02:24;103287.81;;;7.89;100.00
8140;BME280;4111;50.972;7.072;2023-02-12T03:05:16;103296.91;;;7.80;100.00
8140;BME280;4111;50.972;7.072;2023-02-12T03:07:49;103304.34;;;7.78;100.00
8140;BME280;4111;50.972;7.072;2023-02-12T03:10:21;103305.38;;;7.77;100.00
8140;BME280;4111;50.972;7.072;2023-02-12T03:13:04;103297.25;;;7.77;100.00
8140;BME280;4111;50.972;7.072;2023-02-12T03:15:50;103300.28;;;7.73;100.00
8140;BME280;4111;50.972;7.072;2023-02-12T03:18:24;103297.09;;;7.78;100.00
8140;BME280;4111;50.972;7.072;2023-02-12T03:20:59;103299.28;;;7.83;100.00
8140;BME280;4111;50.972;7.072;2023-02-12T03:23:49;103285.78;;;7.91;100.00
8140;BME280;4111;50.972;7.072;2023-02-12T03:26:22;103290.34;;;7.90;100.00
8140;BME280;4111;50.972;7.072;2023-02-12T03:28:51;103291.53;;;7.88;100.00
8140;BME280;4111;50.972;7.072;2023-02-12T03:33:58;103286.28;;;7.86;100.00
8140;BME280;4111;50.972;7.072;2023-02-12T03:39:29;103290.66;;;7.87;100.00
8140;BME280;4111;50.972;7.072;2023-02-12T03:42:14;103289.84;;;7.87;100.00
8140;BME280;4111;50.972;7.072;2023-02-12T03:44:55;103277.97;;;7.80;100.00
8140;BME280;4111;50.972;7.072;2023-02-12T03:47:41;103289.81;;;7.79;100.00
8140;BME280;4111;50.972;7.072;2023-02-12T03:50:31;103289.16;;;7.85;100.00
8140;BME280;4111;50.972;7.072;2023-02-12T03:52:59;103279.84;;;7.87;100.00
8140;BME280;4111;50.972;7.072;2023-02-12T03:55:27;103281.03;;;7.85;100.00
8140;BME280;4111;50.972;7.072;2023-02-12T03:57:59;103281.72;;;7.87;100.00
8140;BME280;4111;50.972;7.072;2023-02-12T04:00:26;103286.13;;;7.88;100.00
8140;BME280;4111;50.972;7.072;2023-02-12T04:02:53;103282.03;;;7.84;100.00
8140;BME280;4111;50.972;7.072;2023-02-12T04:05:25;103286.09;;;7.80;100.00
8140;BME280;4111;50.972;7.072;2023-02-12T04:07:54;103287.81;;;7.81;100.00
8140;BME280;4111;50.972;7.072;2023-02-12T04:10:27;103292.16;;;7.73;100.00
8140;BME280;4111;50.972;7.072;2023-02-12T04:13:23;103287.59;;;7.74;100.00
8140;BME280;4111;50.972;7.072;2023-02-12T04:18:42;103300.94;;;7.67;100.00
8140;BME280;4111;50.972;7.072;2023-02-12T04:21:36;103303.34;;;7.79;100.00
8140;BME280;4111;50.972;7.072;2023-02-12T04:27:21;103305.84;;;7.72;100.00
8140;BME280;4111;50.972;7.072;2023-02-12T04:32:40;103316.84;;;7.70;100.00
8140;BME280;4111;50.972;7.072;2023-02-12T04:38:00;103315.94;;;7.53;100.00
8140;BME280;4111;50.972;7.072;2023-02-12T04:40:29;103318.47;;;7.55;100.00
8140;BME280;4111;50.972;7.072;2023-02-12T04:42:56;103321.22;;;7.63;100.00
8140;BME280;4111;50.972;7.072;2023-02-12T04:45:28;103321.38;;;7.70;100.00
8140;BME280;4111;50.972;7.072;2023-02-12T04:47:55;103320.25;;;7.72;100.00
8140;BME280;4111;50.972;7.072;2023-02-12T04:50:22;103319.22;;;7.73;100.00
8140;BME280;4111;50.972;7.072;2023-02-12T04:52:49;103316.19;;;7.77;100.00
8140;BME280;4111;50.972;7.072;2023-02-12T04:55:15;103315.34;;;7.76;100.00
8140;BME280;4111;50.972;7.072;2023-02-12T04:57:42;103319.88;;;7.75;100.00
8140;BME280;4111;50.972;7.072;2023-02-12T05:00:11;103318.53;;;7.71;100.00
8140;BME280;4111;50.972;7.072;2023-02-12T05:02:38;103320.25;;;7.72;100.00
8140;BME280;4111;50.972;7.072;2023-02-12T05:05:04;103314.31;;;7.77;100.00
8140;BME280;4111;50.972;7.072;2023-02-12T05:07:31;103321.22;;;7.71;100.00
8140;BME280;4111;50.972;7.072;2023-02-12T05:09:57;103322.75;;;7.74;100.00
8140;BME280;4111;50.972;7.072;2023-02-12T05:12:24;103313.13;;;7.71;100.00
8140;BME280;4111;50.972;7.072;2023-02-12T05:14:50;103311.72;;;7.59;100.00
8140;BME280;4111;50.972;7.072;2023-02-12T05:17:16;103314.59;;;7.58;100.00
8140;BME280;4111;50.972;7.072;2023-02-12T05:19:43;103319.84;;;7.59;100.00
8140;BME280;4111;50.972;7.072;2023-02-12T05:22:10;103313.94;;;7.64;100.00
8140;BME280;4111;50.972;7.072;2023-02-12T05:24:36;103313.47;;;7.68;100.00
8140;BME280;4111;50.972;7.072;2023-02-12T05:27:03;103313.47;;;7.68;100.00
8140;BME280;4111;50.972;7.072;2023-02-12T05:29:29;103316.84;;;7.70;100.00
8140;BME280;4111;50.972;7.072;2023-02-12T05:31:56;103324.78;;;7.72;100.00
8140;BME280;4111;50.972;7.072;2023-02-12T05:34:22;103326.78;;;7.70;100.00
8140;BME280;4111;50.972;7.072;2023-02-12T05:36:49;103329.50;;;7.70;100.00
8140;BME280;4111;50.972;7.072;2023-02-12T05:39:15;103327.16;;;7.67;100.00
8140;BME280;4111;50.972;7.072;2023-02-12T05:41:42;103333.06;;;7.70;100.00
8140;BME280;4111;50.972;7.072;2023-02-12T05:44:09;103333.06;;;7.70;100.00
8140;BME280;4111;50.972;7.072;2023-02-12T05:46:37;103332.72;;;7.73;100.00
8140;BME280;4111;50.972;7.072;2023-02-12T05:49:04;103331.75;;;7.74;100.00
8140;BME280;4111;50.972;7.072;2023-02-12T05:51:31;103331.38;;;7.69;100.00
8140;BME280;4111;50.972;7.072;2023-02-12T05:54:00;103335.59;;;7.72;100.00
8140;BME280;4111;50.972;7.072;2023-02-12T05:56:31;103341.00;;;7.72;100.00
8140;BME280;4111;50.972;7.072;2023-02-12T05:59:04;103338.78;;;7.59;100.00
8140;BME280;4111;50.972;7.072;2023-02-12T06:01:33;103338.41;;;7.54;100.00
8140;BME280;4111;50.972;7.072;2023-02-12T06:04:02;103342.44;;;7.50;100.00
8140;BME280;4111;50.972;7.072;2023-02-12T06:06:30;103343.94;;;7.44;100.00
8140;BME280;4111;50.972;7.072;2023-02-12T06:08:57;103341.75;;;7.48;100.00
8140;BME280;4111;50.972;7.072;2023-02-12T06:11:24;103340.25;;;7.53;100.00
8140;BME280;4111;50.972;7.072;2023-02-12T06:13:50;103341.59;;;7.49;100.00
8140;BME280;4111;50.972;7.072;2023-02-12T06:16:23;103338.75;;;7.51;100.00
8140;BME280;4111;50.972;7.072;2023-02-12T06:18:50;103336.06;;;7.59;100.00
8140;BME280;4111;50.972;7.072;2023-02-12T06:21:17;103340.59;;;7.50;100.00
8140;BME280;4111;50.972;7.072;2023-02-12T06:23:46;103339.09;;;7.56;100.00
8140;BME280;4111;50.972;7.072;2023-02-12T06:26:12;103331.19;;;7.63;100.00
8140;BME280;4111;50.972;7.072;2023-02-12T06:28:39;103340.16;;;7.71;100.00
8140;BME280;4111;50.972;7.072;2023-02-12T06:31:18;103341.22;;;7.79;100.00
8140;BME280;4111;50.972;7.072;2023-02-12T06:33:45;103345.56;;;7.71;100.00
8140;BME280;4111;50.972;7.072;2023-02-12T06:36:11;103343.38;;;7.67;100.00
8140;BME280;4111;50.972;7.072;2023-02-12T06:38:38;103339.16;;;7.64;100.00
8140;BME280;4111;50.972;7.072;2023-02-12T06:41:04;103339.81;;;7.66;100.00
8140;BME280;4111;50.972;7.072;2023-02-12T06:43:31;103347.75;;;7.68;100.00
8140;BME280;4111;50.972;7.072;2023-02-12T06:46:01;103340.69;;;7.75;100.00
8140;BME280;4111;50.972;7.072;2023-02-12T06:48:28;103344.75;;;7.79;100.00
8140;BME280;4111;50.972;7.072;2023-02-12T06:50:55;103355.75;;;7.78;100.00
8140;BME280;4111;50.972;7.072;2023-02-12T06:53:21;103359.47;;;7.77;100.00
8140;BME280;4111;50.972;7.072;2023-02-12T06:55:48;103353.72;;;7.80;100.00
8140;BME280;4111;50.972;7.072;2023-02-12T06:58:14;103357.75;;;7.75;100.00
8140;BME280;4111;50.972;7.072;2023-02-12T07:00:41;103366.25;;;7.81;100.00
8140;BME280;4111;50.972;7.072;2023-02-12T07:03:07;103366.91;;;7.74;100.00
8140;BME280;4111;50.972;7.072;2023-02-12T07:05:34;103370.94;;;7.70;100.00
8140;BME280;4111;50.972;7.072;2023-02-12T07:08:03;103369.59;;;7.74;100.00
8140;BME280;4111;50.972;7.072;2023-02-12T07:10:29;103382.09;;;7.75;100.00
8140;BME280;4111;50.972;7.072;2023-02-12T07:12:55;103386.31;;;7.70;100.00
8140;BME280;4111;50.972;7.072;2023-02-12T07:15:22;103381.94;;;7.77;100.00
8140;BME280;4111;50.972;7.072;2023-02-12T07:17:48;103391.59;;;7.80;100.00
8140;BME280;4111;50.972;7.072;2023-02-12T07:20:15;103389.91;;;7.79;100.00
8140;BME280;4111;50.972;7.072;2023-02-12T07:22:41;103380.75;;;7.71;100.00
8140;BME280;4111;50.972;7.072;2023-02-12T07:25:08;103386.69;;;7.75;100.00
8140;BME280;4111;50.972;7.072;2023-02-12T07:27:37;103380.75;;;7.80;100.00
8140;BME280;4111;50.972;7.072;2023-02-12T07:30:05;103392.25;;;7.73;100.00
8140;BME280;4111;50.972;7.072;2023-02-12T07:32:33;103391.41;;;7.73;100.00
8140;BME280;4111;50.972;7.072;2023-02-12T07:34:59;103395.63;;;7.75;100.00
8140;BME280;4111;50.972;7.072;2023-02-12T07:37:26;103391.28;;;7.83;100.00
8140;BME280;4111;50.972;7.072;2023-02-12T07:39:52;103394.66;;;7.85;100.00
8140;BME280;4111;50.972;7.072;2023-02-12T07:42:19;103394.34;;;7.88;100.00
8140;BME280;4111;50.972;7.072;2023-02-12T07:44:45;103400.59;;;7.88;100.00
8140;BME280;4111;50.972;7.072;2023-02-12T07:47:11;103398.06;;;7.87;100.00
8140;BME280;4111;50.972;7.072;2023-02-12T07:49:38;103401.59;;;7.87;100.00
8140;BME280;4111;50.972;7.072;2023-02-12T07:52:04;103405.84;;;7.90;100.00
8140;BME280;4111;50.972;7.072;2023-02-12T07:54:31;103400.09;;;7.93;100.00
8140;BME280;4111;50.972;7.072;2023-02-12T07:56:57;103406.84;;;7.89;100.00
8140;BME280;4111;50.972;7.072;2023-02-12T07:59:25;103408.38;;;7.91;100.00
8140;BME280;4111;50.972;7.072;2023-02-12T08:01:52;103408.19;;;7.85;100.00
8140;BME280;4111;50.972;7.072;2023-02-12T08:04:21;103408.88;;;7.87;100.00
8140;BME280;4111;50.972;7.072;2023-02-12T08:06:50;103408.22;;;7.93;100.00
8140;BME280;4111;50.972;7.072;2023-02-12T08:09:19;103410.25;;;7.91;100.00
8140;BME280;4111;50.972;7.072;2023-02-12T08:11:46;103410.94;;;8.01;100.00
8140;BME280;4111;50.972;7.072;2023-02-12T08:14:15;103413.66;;;8.09;100.00
8140;BME280;4111;50.972;7.072;2023-02-12T08:16:43;103405.59;;;8.18;100.00
8140;BME280;4111;50.972;7.072;2023-02-12T08:19:10;103413.06;;;8.24;100.00
8140;BME280;4111;50.972;7.072;2023-02-12T08:21:51;103415.63;;;8.33;100.00
8140;BME280;4111;50.972;7.072;2023-02-12T08:24:18;103415.63;;;8.33;100.00
8140;BME280;4111;50.972;7.072;2023-02-12T08:26:44;103415.44;;;8.35;100.00
8140;BME280;4111;50.972;7.072;2023-02-12T08:29:16;103422.41;;;8.38;100.00
8140;BME280;4111;50.972;7.072;2023-02-12T08:31:46;103411.09;;;8.42;100.00
8140;BME280;4111;50.972;7.072;2023-02-12T08:34:27;103424.91;;;8.39;100.00
8140;BME280;4111;50.972;7.072;2023-02-12T08:36:54;103426.94;;;8.37;100.00
8140;BME280;4111;50.972;7.072;2023-02-12T08:39:23;103431.75;;;8.43;100.00
8140;BME280;4111;50.972;7.072;2023-02-12T08:41:50;103430.88;;;8.43;100.00
8140;BME280;4111;50.972;7.072;2023-02-12T08:44:18;103438.53;;;8.47;100.00
8140;BME280;4111;50.972;7.072;2023-02-12T08:46:47;103431.25;;;8.48;100.00
8140;BME280;4111;50.972;7.072;2023-02-12T08:49:18;103432.59;;;8.44;100.00
8140;BME280;4111;50.972;7.072;2023-02-12T08:51:46;103431.41;;;8.46;100.00
8140;BME280;4111;50.972;7.072;2023-02-12T08:54:16;103426.00;;;8.46;100.00
8140;BME280;4111;50.972;7.072;2023-02-12T08:56:43;103423.28;;;8.46;100.00
8140;BME280;4111;50.972;7.072;2023-02-12T08:59:12;103428.69;;;8.46;100.00
8140;BME280;4111;50.972;7.072;2023-02-12T09:01:39;103426.34;;;8.60;100.00
8140;BME280;4111;50.972;7.072;2023-02-12T09:04:15;103421.63;;;8.70;100.00
8140;BME280;4111;50.972;7.072;2023-02-12T09:06:44;103421.63;;;8.70;100.00
8140;BME280;4111;50.972;7.072;2023-02-12T09:09:11;103418.91;;;8.78;100.00
8140;BME280;4111;50.972;7.072;2023-02-12T09:11:37;103425.38;;;8.69;100.00
8140;BME280;4111;50.972;7.072;2023-02-12T09:14:06;103423.50;;;8.69;100.00
8140;BME280;4111;50.972;7.072;2023-02-12T09:16:35;103425.53;;;8.76;100.00
8140;BME280;4111;50.972;7.072;2023-02-12T09:19:02;103427.72;;;8.80;100.00
8140;BME280;4111;50.972;7.072;2023-02-12T09:21:29;103430.94;;;8.84;100.00
8140;BME280;4111;50.972;7.072;2023-02-12T09:23:56;103431.09;;;8.82;100.00
8140;BME280;4111;50.972;7.072;2023-02-12T09:26:23;103432.50;;;8.95;100.00
8140;BME280;4111;50.972;7.072;2023-02-12T09:28:52;103433.31;;;9.11;100.00
8140;BME280;4111;50.972;7.072;2023-02-12T09:31:24;103429.41;;;9.14;100.00
8140;BME280;4111;50.972;7.072;2023-02-12T09:33:57;103425.69;;;9.15;100.00
8140;BME280;4111;50.972;7.072;2023-02-12T09:36:24;103431.09;;;9.15;100.00
8140;BME280;4111;50.972;7.072;2023-02-12T09:38:51;103432.78;;;9.16;100.00
8140;BME280;4111;50.972;7.072;2023-02-12T09:41:30;103430.78;;;9.02;100.00
8140;BME280;4111;50.972;7.072;2023-02-12T09:44:14;103425.88;;;8.89;100.00
8140;BME280;4111;50.972;7.072;2023-02-12T09:46:50;103428.72;;;9.04;100.00
8140;BME280;4111;50.972;7.072;2023-02-12T09:52:13;103428.72;;;9.12;100.00
8140;BME280;4111;50.972;7.072;2023-02-12T09:54:41;103425.66;;;9.23;100.00
8140;BME280;4111;50.972;7.072;2023-02-12T09:57:35;103427.38;;;9.24;100.00
8140;BME280;4111;50.972;7.072;2023-02-12T10:00:13;103435.50;;;9.24;100.00
8140;BME280;4111;50.972;7.072;2023-02-12T10:02:40;103435.81;;;9.38;100.00
8140;BME280;4111;50.972;7.072;2023-02-12T10:05:19;103430.88;;;9.41;100.00
8140;BME280;4111;50.972;7.072;2023-02-12T10:13:06;103430.72;;;9.43;100.00
8140;BME280;4111;50.972;7.072;2023-02-12T10:16:05;103436.50;;;9.48;100.00
8140;BME280;4111;50.972;7.072;2023-02-12T10:18:52;103437.44;;;9.63;99.80
8140;BME280;4111;50.972;7.072;2023-02-12T10:21:30;103437.41;;;9.71;99.70
8140;BME280;4111;50.972;7.072;2023-02-12T10:26:30;103438.53;;;9.93;99.09
8140;BME280;4111;50.972;7.072;2023-02-12T10:29:04;103430.09;;;9.80;97.78
8140;BME280;4111;50.972;7.072;2023-02-12T10:31:37;103439.25;;;9.87;97.23
8140;BME280;4111;50.972;7.072;2023-02-12T10:34:15;103445.06;;;9.76;96.48
8140;BME280;4111;50.972;7.072;2023-02-12T10:36:45;103442.16;;;9.78;96.49
8140;BME280;4111;50.972;7.072;2023-02-12T10:39:23;103438.72;;;9.92;96.69
8140;BME280;4111;50.972;7.072;2023-02-12T10:41:55;103435.34;;;9.90;96.04
8140;BME280;4111;50.972;7.072;2023-02-12T10:44:25;103436.31;;;9.97;95.76
8140;BME280;4111;50.972;7.072;2023-02-12T10:46:52;103426.44;;;10.04;95.81
8140;BME280;4111;50.972;7.072;2023-02-12T10:49:20;103423.34;;;10.16;95.59
8140;BME280;4111;50.972;7.072;2023-02-12T10:54:45;103415.13;;;10.24;95.13
8140;BME280;4111;50.972;7.072;2023-02-12T10:57:22;103422.91;;;10.35;95.09
8140;BME280;4111;50.972;7.072;2023-02-12T10:59:51;103421.28;;;10.18;93.86
8140;BME280;4111;50.972;7.072;2023-02-12T11:02:32;103421.22;;;10.26;93.86
8140;BME280;4111;50.972;7.072;2023-02-12T11:05:21;103420.50;;;10.40;93.94
8140;BME280;4111;50.972;7.072;2023-02-12T11:07:49;103414.72;;;10.43;93.42
8140;BME280;4111;50.972;7.072;2023-02-12T11:10:27;103418.16;;;10.37;92.61
8140;BME280;4111;50.972;7.072;2023-02-12T11:12:54;103417.25;;;10.45;92.82
8140;BME280;4111;50.972;7.072;2023-02-12T11:15:22;103418.22;;;10.52;92.78
8140;BME280;4111;50.972;7.072;2023-02-12T11:18:01;103407.94;;;10.62;92.41
8140;BME280;4111;50.972;7.072;2023-02-12T11:20:39;103404.69;;;10.67;92.15
8140;BME280;4111;50.972;7.072;2023-02-12T11:23:38;103412.59;;;10.54;91.19
8140;BME280;4111;50.972;7.072;2023-02-12T11:31:28;103402.78;;;10.52;89.79
8140;BME280;4111;50.972;7.072;2023-02-12T11:34:07;103396.47;;;10.52;89.32
8140;BME280;4111;50.972;7.072;2023-02-12T11:36:40;103397.19;;;10.46;89.10
8140;BME280;4111;50.972;7.072;2023-02-12T11:39:18;103392.84;;;10.60;89.62
8140;BME280;4111;50.972;7.072;2023-02-12T11:41:51;103398.34;;;10.51;89.12
8140;BME280;4111;50.972;7.072;2023-02-12T11:44:31;103398.28;;;10.60;89.34
8140;BME280;4111;50.972;7.072;2023-02-12T11:47:03;103392.84;;;10.60;89.22
8140;BME280;4111;50.972;7.072;2023-02-12T11:49:43;103384.28;;;10.71;89.49
8140;BME280;4111;50.972;7.072;2023-02-12T11:52:20;103378.94;;;10.78;89.21
8140;BME280;4111;50.972;7.072;2023-02-12T11:54:50;103379.53;;;10.88;89.13
8140;BME280;4111;50.972;7.072;2023-02-12T12:00:13;103381.75;;;10.69;88.30
8140;BME280;4111;50.972;7.072;2023-02-12T12:02:48;103375.31;;;10.85;88.33
8140;BME280;4111;50.972;7.072;2023-02-12T12:05:18;103375.44;;;10.92;88.47
8140;BME280;4111;50.972;7.072;2023-02-12T12:07:53;103370.25;;;10.82;88.06
8140;BME280;4111;50.972;7.072;2023-02-12T12:10:38;103364.94;;;10.89;88.25
8140;BME280;4111;50.972;7.072;2023-02-12T12:13:13;103367.19;;;11.00;88.91
8140;BME280;4111;50.972;7.072;2023-02-12T12:15:44;103362.50;;;11.09;88.80
8140;BME280;4111;50.972;7.072;2023-02-12T12:21:49;103358.47;;;11.05;87.97
8140;BME280;4111;50.972;7.072;2023-02-12T12:24:32;103352.38;;;11.03;88.13
8140;BME280;4111;50.972;7.072;2023-02-12T12:27:26;103351.38;;;11.04;88.01
8140;BME280;4111;50.972;7.072;2023-02-12T12:30:21;103346.28;;;11.01;88.02
8140;BME280;4111;50.972;7.072;2023-02-12T12:32:51;103343.22;;;11.04;88.20
8140;BME280;4111;50.972;7.072;2023-02-12T12:35:24;103338.03;;;11.09;88.28
8140;BME280;4111;50.972;7.072;2023-02-12T12:38:01;103346.28;;;11.16;88.23
8140;BME280;4111;50.972;7.072;2023-02-12T12:51:30;103320.06;;;11.08;87.39
8140;BME280;4111;50.972;7.072;2023-02-12T12:54:20;103315.28;;;11.10;87.40
8140;BME280;4111;50.972;7.072;2023-02-12T12:57:29;103315.94;;;11.12;87.58
8140;BME280;4111;50.972;7.072;2023-02-12T13:03:12;103305.69;;;11.29;87.13
8140;BME280;4111;50.972;7.072;2023-02-12T13:06:05;103302.88;;;11.22;86.84
8140;BME280;4111;50.972;7.072;2023-02-12T13:17:46;103293.09;;;11.43;86.96
8140;BME280;4111;50.972;7.072;2023-02-12T13:23:10;103286.28;;;11.32;86.97
8140;BME280;4111;50.972;7.072;2023-02-12T13:25:47;103292.84;;;11.38;86.52
8140;BME280;4111;50.972;7.072;2023-02-12T13:28:25;103294.25;;;11.34;86.73
8140;BME280;4111;50.972;7.072;2023-02-12T13:30:55;103292.19;;;11.36;86.65
8140;BME280;4111;50.972;7.072;2023-02-12T13:33:49;103281.31;;;11.36;86.54
8140;BME280;4111;50.972;7.072;2023-02-12T13:36:14;103279.59;;;11.35;86.51
8140;BME280;4111;50.972;7.072;2023-02-12T13:39:11;103274.28;;;11.26;86.69
8140;BME280;4111;50.972;7.072;2023-02-12T13:41:46;103276.53;;;11.38;87.17
8140;BME280;4111;50.972;7.072;2023-02-12T13:49:53;103274.47;;;11.40;86.94
8140;BME280;4111;50.972;7.072;2023-02-12T13:56:04;103263.34;;;11.56;86.65
8140;BME280;4111;50.972;7.072;2023-02-12T14:01:12;103257.44;;;11.52;86.34
8140;BME280;4111;50.972;7.072;2023-02-12T14:06:51;103254.53;;;11.54;86.22
8140;BME280;4111;50.972;7.072;2023-02-12T14:09:21;103257.53;;;11.59;86.15
8140;BME280;4111;50.972;7.072;2023-02-12T14:11:52;103252.75;;;11.46;86.17
8140;BME280;4111;50.972;7.072;2023-02-12T14:14:31;103255.78;;;11.37;86.15
8140;BME280;4111;50.972;7.072;2023-02-12T14:37:57;103253.00;;;11.66;86.24
8140;BME280;4111;50.972;7.072;2023-02-12T14:40:37;103255.53;;;11.68;86.69
8140;BME280;4111;50.972;7.072;2023-02-12T14:43:26;103261.91;;;11.60;86.12
8140;BME280;4111;50.972;7.072;2023-02-12T14:45:55;103260.16;;;11.52;86.17
8140;BME280;4111;50.972;7.072;2023-02-12T14:51:15;103258.66;;;11.50;85.87
8140;BME280;4111;50.972;7.072;2023-02-12T14:53:44;103261.22;;;11.51;85.74
8140;BME280;4111;50.972;7.072;2023-02-12T14:56:18;103259.50;;;11.50;85.84
8140;BME280;4111;50.972;7.072;2023-02-12T14:58:45;103257.91;;;11.56;85.96
8140;BME280;4111;50.972;7.072;2023-02-12T15:01:12;103260.25;;;11.59;85.88
8140;BME280;4111;50.972;7.072;2023-02-12T15:03:47;103260.91;;;11.61;85.99
8140;BME280;4111;50.972;7.072;2023-02-12T15:06:17;103262.19;;;11.65;85.77
8140;BME280;4111;50.972;7.072;2023-02-12T15:08:48;103258.25;;;11.68;85.78
8140;BME280;4111;50.972;7.072;2023-02-12T15:11:24;103260.91;;;11.61;85.35
8140;BME280;4111;50.972;7.072;2023-02-12T15:14:01;103254.16;;;11.57;85.46
8140;BME280;4111;50.972;7.072;2023-02-12T15:19:38;103251.16;;;11.52;85.47
8140;BME280;4111;50.972;7.072;2023-02-12T15:22:18;103246.19;;;11.56;85.91
8140;BME280;4111;50.972;7.072;2023-02-12T15:24:45;103256.00;;;11.57;85.90
8140;BME280;4111;50.972;7.072;2023-02-12T15:27:13;103246.94;;;11.49;85.76
8140;BME280;4111;50.972;7.072;2023-02-12T15:29:46;103245.44;;;11.47;85.91
8140;BME280;4111;50.972;7.072;2023-02-12T15:32:25;103242.72;;;11.47;85.78
8140;BME280;4111;50.972;7.072;2023-02-12T15:34:53;103242.34;;;11.50;85.66
8140;BME280;4111;50.972;7.072;2023-02-12T15:37:26;103235.19;;;11.49;85.64
8140;BME280;4111;50.972;7.072;2023-02-12T15:39:59;103234.00;;;11.51;85.32
8140;BME280;4111;50.972;7.072;2023-02-12T15:42:30;103241.88;;;11.46;85.38
8140;BME280;4111;50.972;7.072;2023-02-12T15:47:33;103233.53;;;11.48;85.43